createdAt,value
2018-11-28T00:01:14.979Z,16.45
2018-11-28T00:03:42.725Z,18.90
2018-11-28T00:06:10.436Z,18.67
2018-11-28T00:08:38.197Z,18.50
2018-11-28T00:11:05.956Z,18.10
2018-11-28T00:13:33.728Z,19.60
2018-11-28T00:16:01.482Z,17.87
2018-11-28T00:18:29.272Z,17.67
2018-11-28T00:20:57.014Z,17.70
2018-11-28T00:23:24.794Z,18.67
2018-11-28T00:25:52.566Z,18.65
2018-11-28T00:28:20.325Z,18.70
2018-11-28T00:30:48.079Z,17.95
2018-11-28T00:33:15.825Z,18.60
2018-11-28T00:35:43.608Z,17.67
2018-11-28T00:38:11.396Z,16.48
2018-11-28T00:40:39.208Z,17.95
2018-11-28T00:43:06.963Z,17.52
2018-11-28T00:45:34.714Z,18.67
2018-11-28T00:48:02.519Z,18.32
2018-11-28T00:50:30.290Z,18.67
2018-11-28T00:52:58.043Z,17.40
2018-11-28T00:55:25.820Z,16.80
2018-11-28T00:57:53.558Z,17.87
2018-11-28T01:00:26.100Z,18.90
2018-11-28T01:02:53.871Z,19.27
2018-11-28T01:05:21.664Z,18.55
2018-11-28T01:07:50.352Z,17.87
2018-11-28T01:10:19.227Z,17.87
2018-11-28T01:12:47.488Z,19.12
2018-11-28T01:15:16.240Z,19.10
2018-11-28T01:17:44.110Z,19.30
2018-11-28T01:20:15.830Z,17.62
2018-11-28T01:22:43.662Z,17.42
2018-11-28T01:25:12.360Z,18.80
2018-11-28T01:27:40.191Z,19.15
2018-11-28T01:30:14.253Z,18.92
2018-11-28T01:32:42.040Z,18.12
2018-11-28T01:35:11.709Z,18.75
2018-11-28T01:37:39.705Z,17.82
2018-11-28T01:40:12.690Z,17.67
2018-11-28T01:42:40.532Z,16.67
2018-11-28T01:45:09.647Z,17.75
2018-11-28T01:47:37.364Z,18.62
2018-11-28T01:50:07.892Z,17.70
2018-11-28T01:52:35.701Z,17.73
2018-11-28T01:55:03.895Z,19.60
2018-11-28T01:57:31.651Z,18.20
2018-11-28T01:59:59.364Z,18.98
2018-11-28T02:02:27.122Z,18.48
2018-11-28T02:04:54.977Z,18.17
2018-11-28T02:07:22.740Z,19.87
2018-11-28T02:09:50.505Z,18.27
2018-11-28T02:12:18.235Z,18.10
2018-11-28T02:14:46.004Z,18.82
2018-11-28T02:17:13.736Z,17.65
2018-11-28T02:19:41.499Z,17.52
2018-11-28T02:22:09.307Z,16.52
2018-11-28T02:24:37.017Z,15.93
2018-11-28T02:27:04.921Z,16.25
2018-11-28T02:29:32.717Z,15.25
2018-11-28T02:32:00.473Z,16.75
2018-11-28T02:34:28.216Z,17.15
2018-11-28T02:36:55.952Z,15.85
2018-11-28T02:39:23.681Z,14.98
2018-11-28T02:41:51.429Z,14.55
2018-11-28T02:44:19.168Z,14.35
2018-11-28T02:46:46.891Z,15.08
2018-11-28T02:49:14.669Z,15.48
2018-11-28T02:51:42.422Z,13.95
2018-11-28T02:54:10.157Z,14.73
2018-11-28T02:56:37.884Z,15.18
2018-11-28T02:59:05.672Z,15.98
2018-11-28T03:01:33.402Z,16.45
2018-11-28T03:04:01.193Z,17.23
2018-11-28T03:06:28.887Z,17.23
2018-11-28T03:08:56.622Z,16.32
2018-11-28T03:11:24.416Z,16.80
2018-11-28T03:13:52.186Z,17.60
2018-11-28T03:16:19.938Z,17.60
2018-11-28T03:18:47.771Z,16.52
2018-11-28T03:21:15.576Z,18.10
2018-11-28T03:23:43.296Z,19.00
2018-11-28T03:26:11.051Z,17.90
2018-11-28T03:28:38.857Z,17.00
2018-11-28T03:31:06.633Z,17.20
2018-11-28T03:33:34.370Z,17.37
2018-11-28T03:36:02.103Z,16.90
2018-11-28T03:38:29.828Z,17.32
2018-11-28T03:40:57.560Z,18.17
2018-11-28T03:43:25.296Z,18.40
2018-11-28T03:45:53.095Z,19.52
2018-11-28T03:48:20.857Z,16.32
2018-11-28T03:50:48.640Z,19.10
2018-11-28T03:53:16.428Z,16.77
2018-11-28T03:55:44.233Z,18.60
2018-11-28T03:58:12.045Z,17.55
2018-11-28T04:00:39.850Z,18.37
2018-11-28T04:03:07.647Z,18.30
2018-11-28T04:05:36.054Z,20.35
2018-11-28T04:08:04.040Z,20.52
2018-11-28T04:10:31.774Z,19.23
2018-11-28T04:12:59.481Z,20.95
2018-11-28T04:15:27.218Z,20.75
2018-11-28T04:17:54.976Z,20.95
2018-11-28T04:20:22.945Z,20.57
2018-11-28T04:22:50.860Z,24.57
2018-11-28T04:25:20.586Z,20.37
2018-11-28T04:27:48.424Z,21.15
2018-11-28T04:30:18.327Z,20.45
2018-11-28T04:32:46.734Z,21.55
2018-11-28T04:35:14.758Z,19.82
2018-11-28T04:37:43.411Z,21.90
2018-11-28T04:40:16.123Z,20.50
2018-11-28T04:42:44.234Z,19.98
2018-11-28T04:45:18.306Z,20.70
2018-11-28T04:47:46.062Z,19.70
2018-11-28T04:50:13.820Z,22.55
2018-11-28T04:52:41.576Z,20.57
2018-11-28T04:55:12.242Z,22.05
2018-11-28T04:57:39.992Z,21.80
2018-11-28T05:00:22.232Z,23.73
2018-11-28T05:02:50.311Z,20.17
2018-11-28T05:05:18.085Z,22.22
2018-11-28T05:07:46.727Z,20.50
2018-11-28T05:10:16.468Z,19.35
2018-11-28T05:12:44.251Z,23.20
2018-11-28T05:15:13.179Z,20.80
2018-11-28T05:17:40.984Z,21.33
2018-11-28T05:20:10.830Z,21.35
2018-11-28T05:22:38.587Z,20.95
2018-11-28T05:25:15.412Z,21.02
2018-11-28T05:27:43.268Z,23.25
2018-11-28T05:30:13.040Z,22.37
2018-11-28T05:32:40.885Z,23.55
2018-11-28T05:35:12.976Z,21.20
2018-11-28T05:37:40.776Z,21.77
2018-11-28T05:40:09.835Z,20.88
2018-11-28T05:42:37.640Z,22.27
2018-11-28T05:45:07.774Z,21.95
2018-11-28T05:47:35.880Z,21.27
2018-11-28T05:50:05.702Z,21.48
2018-11-28T05:52:33.517Z,23.05
2018-11-28T05:55:01.311Z,21.10
2018-11-28T05:57:29.040Z,23.70
2018-11-28T05:59:56.831Z,24.10
2018-11-28T06:02:24.553Z,22.87
2018-11-28T06:04:52.309Z,23.32
2018-11-28T06:07:20.023Z,22.02
2018-11-28T06:09:47.843Z,22.73
2018-11-28T06:12:15.653Z,22.27
2018-11-28T06:14:43.380Z,23.90
2018-11-28T06:17:11.075Z,22.50
2018-11-28T06:19:38.843Z,23.55
2018-11-28T06:22:07.296Z,23.30
2018-11-28T06:24:35.456Z,20.30
2018-11-28T06:27:03.243Z,21.93
2018-11-28T06:29:31.040Z,20.10
2018-11-28T06:31:58.760Z,20.88
2018-11-28T06:34:26.479Z,18.67
2018-11-28T06:36:54.207Z,20.88
2018-11-28T06:39:21.972Z,21.23
2018-11-28T06:41:49.696Z,20.45
2018-11-28T06:44:17.443Z,21.75
2018-11-28T06:46:45.167Z,19.07
2018-11-28T06:49:12.870Z,20.92
2018-11-28T06:51:40.595Z,18.90
2018-11-28T06:54:08.373Z,20.45
2018-11-28T06:56:36.086Z,21.60
2018-11-28T06:59:04.212Z,18.92
2018-11-28T07:01:31.969Z,22.60
2018-11-28T07:03:59.672Z,20.70
2018-11-28T07:06:27.376Z,19.73
2018-11-28T07:08:55.111Z,21.37
2018-11-28T07:11:22.821Z,18.85
2018-11-28T07:13:50.524Z,20.48
2018-11-28T07:16:18.222Z,20.60
2018-11-28T07:18:57.174Z,18.55
2018-11-28T07:21:24.887Z,17.87
2018-11-28T07:23:52.618Z,18.27
2018-11-28T07:26:20.323Z,17.40
2018-11-28T07:28:48.063Z,18.92
2018-11-28T07:31:15.823Z,15.78
2018-11-28T07:33:43.551Z,17.70
2018-11-28T07:36:11.265Z,18.20
2018-11-28T07:38:38.967Z,17.35
2018-11-28T07:41:06.665Z,19.40
2018-11-28T07:43:34.375Z,18.60
2018-11-28T07:46:02.160Z,17.57
2018-11-28T07:48:29.855Z,17.82
2018-11-28T07:50:57.636Z,18.77
2018-11-28T07:53:25.397Z,18.17
2018-11-28T07:55:53.125Z,18.77
2018-11-28T07:58:20.815Z,19.60
2018-11-28T08:00:48.538Z,17.75
2018-11-28T08:03:16.236Z,19.52
2018-11-28T08:05:43.927Z,18.65
2018-11-28T08:08:11.663Z,18.60
2018-11-28T08:10:39.368Z,19.92
2018-11-28T08:13:07.683Z,20.55
2018-11-28T08:15:35.442Z,19.90
2018-11-28T08:18:03.196Z,20.70
2018-11-28T08:20:30.949Z,19.35
2018-11-28T08:22:58.648Z,20.60
2018-11-28T08:25:27.939Z,21.20
2018-11-28T08:27:54.126Z,20.90
2018-11-28T08:30:23.773Z,21.30
2018-11-28T08:32:51.879Z,22.22
2018-11-28T08:35:19.725Z,22.37
2018-11-28T08:37:47.492Z,21.12
2018-11-28T08:40:22.947Z,22.80
2018-11-28T08:42:50.703Z,20.30
2018-11-28T08:45:19.612Z,22.62
2018-11-28T08:47:49.380Z,21.02
2018-11-28T08:50:22.203Z,21.52
2018-11-28T08:52:49.960Z,21.95
2018-11-28T08:55:17.717Z,21.50
2018-11-28T08:57:45.475Z,22.15
2018-11-28T09:00:17.244Z,23.85
2018-11-28T09:02:47.887Z,23.62
2018-11-28T09:05:15.683Z,23.42
2018-11-28T09:07:43.428Z,23.62
2018-11-28T09:10:14.334Z,22.85
2018-11-28T09:12:42.103Z,22.42
2018-11-28T09:15:23.659Z,21.55
2018-11-28T09:17:51.493Z,23.65
2018-11-28T09:20:19.240Z,21.25
2018-11-28T09:22:47.014Z,21.82
2018-11-28T09:25:16.660Z,22.62
2018-11-28T09:27:47.403Z,21.17
2018-11-28T09:30:16.113Z,20.12
2018-11-28T09:32:43.953Z,21.40
2018-11-28T09:35:12.440Z,21.12
2018-11-28T09:37:45.447Z,22.60
2018-11-28T09:40:11.911Z,22.20
2018-11-28T09:42:39.647Z,21.50
2018-11-28T09:45:09.358Z,21.25
2018-11-28T09:47:37.071Z,22.25
2018-11-28T09:50:09.179Z,22.67
2018-11-28T09:52:36.921Z,23.40
2018-11-28T09:55:06.579Z,23.32
2018-11-28T09:57:34.307Z,22.20
2018-11-28T10:00:02.084Z,21.02
2018-11-28T10:02:29.796Z,22.52
2018-11-28T10:05:02.578Z,21.68
2018-11-28T10:07:25.347Z,21.68
2018-11-28T10:09:53.054Z,22.40
2018-11-28T10:12:20.747Z,21.33
2018-11-28T10:14:48.451Z,22.95
2018-11-28T10:17:16.161Z,21.93
2018-11-28T10:19:43.891Z,20.77
2018-11-28T10:22:11.616Z,20.45
2018-11-28T10:24:39.368Z,23.27
2018-11-28T10:27:07.125Z,20.85
2018-11-28T10:29:34.831Z,24.30
2018-11-28T10:32:02.548Z,22.45
2018-11-28T10:34:30.241Z,21.37
2018-11-28T10:36:57.979Z,21.10
2018-11-28T10:39:25.692Z,21.62
2018-11-28T10:41:53.449Z,23.55
2018-11-28T10:44:21.172Z,20.62
2018-11-28T10:46:48.884Z,23.87
2018-11-28T10:49:16.658Z,22.05
2018-11-28T10:51:50.179Z,22.60
2018-11-28T10:54:12.123Z,21.20
2018-11-28T10:56:39.851Z,21.33
2018-11-28T10:59:07.563Z,23.20
2018-11-28T11:01:39.840Z,21.87
2018-11-28T11:04:14.068Z,20.25
2018-11-28T11:06:47.813Z,21.52
2018-11-28T11:09:21.194Z,21.20
2018-11-28T11:11:54.507Z,23.00
2018-11-28T11:14:27.963Z,21.33
2018-11-28T11:16:55.668Z,22.70
2018-11-28T11:19:23.439Z,21.42
2018-11-28T11:21:51.140Z,20.25
2018-11-28T11:24:18.847Z,20.95
2018-11-28T11:26:46.584Z,22.60
2018-11-28T11:29:14.324Z,22.10
2018-11-28T11:31:42.017Z,23.62
2018-11-28T11:34:09.752Z,21.20
2018-11-28T11:36:37.521Z,20.95
2018-11-28T11:39:06.919Z,21.93
2018-11-28T11:41:34.644Z,21.45
2018-11-28T11:44:02.356Z,21.50
2018-11-28T11:46:30.102Z,21.52
2018-11-28T11:48:57.800Z,20.55
2018-11-28T11:51:25.476Z,20.72
2018-11-28T11:53:53.196Z,19.40
2018-11-28T11:56:20.934Z,22.00
2018-11-28T11:58:48.699Z,20.85
2018-11-28T12:01:16.441Z,21.25
2018-11-28T12:03:44.192Z,21.35
2018-11-28T12:06:11.886Z,20.12
2018-11-28T12:08:39.653Z,20.05
2018-11-28T12:11:07.367Z,19.75
2018-11-28T12:13:35.069Z,19.57
2018-11-28T12:16:02.767Z,18.30
2018-11-28T12:18:30.492Z,19.23
2018-11-28T12:21:01.257Z,19.10
2018-11-28T12:23:28.948Z,18.95
2018-11-28T12:25:56.703Z,19.50
2018-11-28T12:28:24.428Z,18.20
2018-11-28T12:30:52.182Z,18.70
2018-11-28T12:33:19.898Z,18.65
2018-11-28T12:35:47.643Z,17.42
2018-11-28T12:38:15.386Z,18.30
2018-11-28T12:40:43.060Z,18.05
2018-11-28T12:43:10.806Z,18.80
2018-11-28T12:45:40.365Z,18.90
2018-11-28T12:48:08.080Z,17.30
2018-11-28T12:50:35.816Z,19.12
2018-11-28T12:53:03.592Z,19.98
2018-11-28T12:55:33.088Z,19.67
2018-11-28T12:58:00.846Z,19.37
2018-11-28T13:00:29.635Z,20.40
2018-11-28T13:02:57.379Z,19.17
2018-11-28T13:05:26.056Z,18.77
2018-11-28T13:07:53.872Z,18.85
2018-11-28T13:10:23.905Z,19.12
2018-11-28T13:12:51.766Z,17.27
2018-11-28T13:15:20.384Z,18.02
2018-11-28T13:17:48.080Z,17.35
2018-11-28T13:20:17.657Z,18.50
2018-11-28T13:22:46.448Z,17.10
2018-11-28T13:25:15.385Z,17.87
2018-11-28T13:27:43.275Z,20.25
2018-11-28T13:30:19.409Z,19.98
2018-11-28T13:32:47.701Z,22.15
2018-11-28T13:35:16.767Z,32.60
2018-11-28T13:37:45.443Z,22.42
2018-11-28T13:40:14.337Z,23.62
2018-11-28T13:42:42.227Z,21.25
2018-11-28T13:45:16.296Z,20.35
2018-11-28T13:47:45.341Z,19.02
2018-11-28T13:50:13.167Z,18.30
2018-11-28T13:52:41.782Z,18.40
2018-11-28T13:57:44.283Z,18.25
2018-11-28T14:00:12.006Z,18.35
2018-11-28T14:02:39.737Z,19.30
2018-11-28T14:05:10.611Z,19.10
2018-11-28T14:07:38.530Z,20.30
2018-11-28T14:10:10.672Z,19.15
2018-11-28T14:12:38.419Z,17.77
2018-11-28T14:15:23.994Z,18.17
2018-11-28T14:17:55.044Z,19.50
2018-11-28T14:20:22.807Z,17.12
2018-11-28T14:22:50.579Z,18.73
2018-11-28T14:25:18.328Z,17.40
2018-11-28T14:27:46.170Z,21.25
2018-11-28T14:30:16.143Z,17.67
2018-11-28T14:32:44.215Z,17.50
2018-11-28T14:35:12.058Z,17.98
2018-11-28T14:37:39.828Z,19.60
2018-11-28T14:40:11.892Z,18.27
2018-11-28T14:42:39.656Z,18.12
2018-11-28T14:45:14.311Z,19.10
2018-11-28T14:47:42.188Z,16.27
2018-11-28T14:50:17.979Z,17.73
2018-11-28T14:52:45.784Z,17.37
2018-11-28T14:55:23.543Z,17.02
2018-11-28T14:57:51.424Z,17.70
2018-11-28T15:00:24.239Z,20.27
2018-11-28T15:02:54.319Z,18.20
2018-11-28T15:05:36.834Z,18.32
2018-11-28T15:08:07.566Z,18.87
2018-11-28T15:11:12.778Z,19.67
2018-11-28T15:13:42.014Z,19.45
2018-11-28T15:16:09.104Z,21.10
2018-11-28T15:18:37.034Z,22.00
2018-11-28T15:21:05.957Z,21.65
2018-11-28T15:23:33.732Z,21.85
2018-11-28T15:26:01.436Z,21.25
2018-11-28T15:28:29.136Z,19.52
2018-11-28T15:30:56.842Z,19.30
2018-11-28T15:33:24.526Z,18.60
2018-11-28T15:35:52.401Z,18.35
2018-11-28T15:38:20.084Z,19.27
2018-11-28T15:40:47.834Z,19.10
2018-11-28T15:43:15.512Z,19.55
2018-11-28T15:45:43.196Z,19.40
2018-11-28T15:48:11.020Z,18.20
2018-11-28T15:50:38.707Z,19.10
2018-11-28T15:53:06.455Z,20.15
2018-11-28T15:55:34.210Z,18.10
2018-11-28T15:58:01.931Z,17.80
2018-11-28T16:00:29.718Z,20.12
2018-11-28T16:02:57.460Z,18.85
2018-11-28T16:05:25.143Z,19.40
2018-11-28T16:07:52.942Z,17.85
2018-11-28T16:10:26.201Z,19.00
2018-11-28T16:12:54.018Z,21.65
2018-11-28T16:15:24.123Z,20.25
2018-11-28T16:17:51.877Z,20.52
2018-11-28T16:20:19.631Z,19.80
2018-11-28T16:22:47.348Z,20.80
2018-11-28T16:25:15.153Z,20.15
2018-11-28T16:27:42.985Z,22.22
2018-11-28T16:30:17.206Z,43.45
2018-11-28T16:32:45.744Z,31.68
2018-11-28T16:35:15.726Z,26.65
2018-11-28T16:37:43.463Z,21.70
2018-11-28T16:40:12.290Z,19.92
2018-11-28T16:42:40.055Z,20.00
2018-11-28T16:45:23.545Z,19.42
2018-11-28T16:47:51.276Z,20.50
2018-11-28T16:50:19.044Z,18.15
2018-11-28T16:52:46.976Z,18.95
2018-11-28T16:55:15.733Z,19.55
2018-11-28T16:57:44.776Z,20.17
2018-11-28T17:00:14.516Z,19.32
2018-11-28T17:02:42.244Z,19.48
2018-11-28T17:05:13.175Z,21.55
2018-11-28T17:07:41.054Z,23.10
2018-11-28T17:10:10.488Z,20.70
2018-11-28T17:12:38.271Z,20.65
2018-11-28T17:15:08.575Z,22.93
2018-11-28T17:17:36.306Z,21.23
2018-11-28T17:20:07.331Z,20.77
2018-11-28T17:22:35.004Z,22.85
2018-11-28T17:25:02.861Z,22.50
2018-11-28T17:27:30.543Z,20.85
2018-11-28T17:29:58.251Z,19.12
2018-11-28T17:32:26.008Z,19.52
2018-11-28T17:34:53.732Z,19.45
2018-11-28T17:37:21.485Z,22.13
2018-11-28T17:39:49.259Z,21.00
2018-11-28T17:42:16.989Z,22.80
2018-11-28T17:44:44.752Z,22.00
2018-11-28T17:47:12.480Z,19.80
2018-11-28T17:49:40.247Z,19.57
2018-11-28T17:52:07.975Z,20.50
2018-11-28T17:54:35.763Z,19.85
2018-11-28T17:57:03.568Z,19.00
2018-11-28T17:59:31.401Z,18.87
2018-11-28T18:01:59.228Z,20.35
2018-11-28T18:04:30.024Z,18.98
2018-11-28T18:06:55.076Z,19.07
2018-11-28T18:09:22.991Z,19.32
2018-11-28T18:11:51.310Z,20.15
2018-11-28T18:14:19.447Z,20.65
2018-11-28T18:16:47.494Z,21.90
2018-11-28T18:19:15.956Z,19.32
2018-11-28T18:21:44.044Z,20.85
2018-11-28T18:24:12.195Z,19.15
2018-11-28T18:26:40.186Z,18.50
2018-11-28T18:29:08.183Z,17.70
2018-11-28T18:31:36.299Z,21.12
2018-11-28T18:34:04.749Z,18.73
2018-11-28T18:36:33.142Z,18.60
2018-11-28T18:39:01.276Z,19.73
2018-11-28T18:41:29.352Z,20.70
2018-11-28T18:43:57.350Z,18.90
2018-11-28T18:46:25.177Z,19.42
2018-11-28T18:48:52.927Z,18.87
2018-11-28T18:51:20.772Z,19.27
2018-11-28T18:53:49.578Z,21.15
2018-11-28T18:56:17.044Z,20.40
2018-11-28T18:58:45.174Z,19.90
2018-11-28T19:01:12.929Z,20.25
2018-11-28T19:03:41.127Z,24.07
2018-11-28T19:06:08.937Z,22.20
2018-11-28T19:08:37.082Z,17.95
2018-11-28T19:11:05.431Z,18.62
2018-11-28T19:13:33.334Z,17.42
2018-11-28T19:16:01.540Z,20.37
2018-11-28T19:18:29.584Z,19.45
2018-11-28T19:20:58.368Z,18.57
2018-11-28T19:23:26.900Z,19.00
2018-11-28T19:25:55.573Z,17.73
2018-11-28T19:28:23.468Z,20.30
2018-11-28T19:30:51.283Z,18.02
2018-11-28T19:33:19.042Z,17.20
2018-11-28T19:35:47.249Z,18.85
2018-11-28T19:38:15.786Z,18.55
2018-11-28T19:40:48.871Z,17.48
2018-11-28T19:43:16.658Z,18.25
2018-11-28T19:45:44.455Z,16.65
2018-11-28T19:48:14.192Z,17.05
2018-11-28T19:50:42.059Z,17.87
2018-11-28T19:53:10.137Z,17.55
2018-11-28T19:55:38.262Z,16.37
2018-11-28T19:58:06.785Z,16.45
2018-11-28T20:00:34.860Z,15.90
2018-11-28T20:03:02.608Z,15.80
2018-11-28T20:05:30.332Z,16.80
2018-11-28T20:07:58.089Z,17.17
2018-11-28T20:10:25.981Z,15.65
2018-11-28T20:12:53.819Z,13.45
2018-11-28T20:15:24.948Z,14.63
2018-11-28T20:17:52.719Z,14.20
2018-11-28T20:20:20.803Z,13.55
2018-11-28T20:22:48.535Z,13.10
2018-11-28T20:25:20.571Z,13.03
2018-11-28T20:27:53.122Z,12.23
2018-11-28T20:30:52.831Z,13.40
2018-11-28T20:33:20.591Z,12.70
2018-11-28T20:35:49.054Z,10.00
2018-11-28T20:38:32.923Z,12.47
2018-11-28T20:41:00.674Z,11.12
2018-11-28T20:43:28.426Z,12.40
2018-11-28T20:45:56.175Z,11.33
2018-11-28T20:48:23.945Z,11.43
2018-11-28T20:50:52.263Z,11.50
2018-11-28T20:53:20.807Z,10.75
2018-11-28T20:55:48.550Z,11.15
2018-11-28T20:58:16.398Z,11.55
2018-11-28T21:00:44.194Z,11.03
2018-11-28T21:03:11.990Z,10.25
2018-11-28T21:05:39.734Z,10.70
2018-11-28T21:08:08.612Z,9.30
2018-11-28T21:10:37.382Z,9.75
2018-11-28T21:13:07.480Z,9.35
2018-11-28T21:15:35.401Z,9.88
2018-11-28T21:18:03.193Z,10.58
2018-11-28T21:20:30.986Z,10.60
2018-11-28T21:23:00.058Z,8.70
2018-11-28T21:25:27.796Z,9.85
2018-11-28T21:27:55.539Z,8.33
2018-11-28T21:30:23.282Z,8.25
2018-11-28T21:32:51.907Z,8.78
2018-11-28T21:35:21.123Z,7.62
2018-11-28T21:37:48.867Z,8.83
2018-11-28T21:40:16.680Z,8.50
2018-11-28T21:42:44.430Z,8.93
2018-11-28T21:45:13.351Z,9.13
2018-11-28T21:47:41.136Z,8.45
2018-11-28T21:50:11.179Z,8.80
2018-11-28T21:52:38.880Z,9.20
2018-11-28T21:55:08.552Z,8.15
2018-11-28T21:57:36.325Z,8.63
2018-11-28T22:00:06.796Z,8.18
2018-11-28T22:02:34.540Z,8.40
2018-11-28T22:05:02.258Z,7.30
2018-11-28T22:07:30.043Z,7.20
2018-11-28T22:09:57.803Z,8.00
2018-11-28T22:12:26.383Z,8.23
2018-11-28T22:14:53.389Z,6.80
2018-11-28T22:17:21.134Z,7.60
2018-11-28T22:19:48.856Z,8.08
2018-11-28T22:22:16.564Z,7.87
2018-11-28T22:24:44.361Z,7.58
2018-11-28T22:27:12.074Z,7.78
2018-11-28T22:29:39.839Z,6.87
2018-11-28T22:32:07.588Z,7.30
2018-11-28T22:34:35.336Z,6.20
2018-11-28T22:37:03.056Z,7.25
2018-11-28T22:39:30.873Z,7.50
2018-11-28T22:41:58.626Z,7.70
2018-11-28T22:44:26.341Z,7.83
2018-11-28T22:46:54.070Z,7.30
2018-11-28T22:49:21.820Z,7.62
2018-11-28T22:51:49.593Z,7.08
2018-11-28T22:54:17.369Z,5.92
2018-11-28T22:56:45.121Z,6.72
2018-11-28T22:59:12.847Z,6.92
2018-11-28T23:02:53.423Z,7.47
2018-11-28T23:05:22.756Z,7.37
2018-11-28T23:07:50.511Z,7.75
2018-11-28T23:10:18.273Z,6.95
2018-11-28T23:12:46.029Z,7.12
2018-11-28T23:15:13.855Z,8.30
2018-11-28T23:17:41.604Z,7.75
2018-11-28T23:20:09.796Z,8.38
2018-11-28T23:22:37.526Z,8.00
2018-11-28T23:25:07.273Z,7.10
2018-11-28T23:27:35.063Z,7.90
2018-11-28T23:30:02.871Z,8.00
2018-11-28T23:32:30.612Z,8.10
2018-11-28T23:34:58.366Z,8.53
2018-11-28T23:37:26.093Z,8.63
2018-11-28T23:39:53.810Z,9.25
2018-11-28T23:42:21.572Z,7.85
2018-11-28T23:44:49.335Z,9.05
2018-11-28T23:47:17.089Z,8.65
2018-11-28T23:49:44.833Z,9.20
2018-11-28T23:52:12.607Z,9.45
2018-11-28T23:54:40.301Z,8.98
2018-11-28T23:57:08.038Z,9.20
2018-11-28T23:59:35.783Z,8.68
